<?xml version="1.0" encoding="UTF-8" ?>
<gpx version="1.1" xmlns:xsi="http://www.w3.org/2001/XMLSchema-instance" 
    xmlns="http://www.topografix.com/GPX/1/1" 
    xsi:schemaLocation="http://www.topografix.com/GPX/1/1 http://www.topografix.com/GPX/1/1/gpx.xsd" 
    creator="Openrunner - https://www.openrunner.com" >	<trk>
						<name>Station_Pedestre_Pely_1.8km_D200--20897161</name>
						<trkseg>
					<trkpt lat="46.238170" lon="6.475110">
						<ele>1157</ele>
						<time>2025-03-15T17:17:35Z</time>
					</trkpt>
					<trkpt lat="46.238160" lon="6.475160">
						<ele>1156</ele>
						<time>2025-03-15T17:17:40Z</time>
					</trkpt>
					<trkpt lat="46.237930" lon="6.475310">
						<ele>1157</ele>
						<time>2025-03-15T17:18:13Z</time>
					</trkpt>
					<trkpt lat="46.237620" lon="6.475350">
						<ele>1160</ele>
						<time>2025-03-15T17:18:55Z</time>
					</trkpt>
					<trkpt lat="46.237260" lon="6.475530">
						<ele>1159</ele>
						<time>2025-03-15T17:19:46Z</time>
					</trkpt>
					<trkpt lat="46.236930" lon="6.475650">
						<ele>1158</ele>
						<time>2025-03-15T17:20:31Z</time>
					</trkpt>
					<trkpt lat="46.236950" lon="6.475830">
						<ele>1158</ele>
						<time>2025-03-15T17:20:48Z</time>
					</trkpt>
					<trkpt lat="46.236920" lon="6.475850">
						<ele>1159</ele>
						<time>2025-03-15T17:20:52Z</time>
					</trkpt>
					<trkpt lat="46.236950" lon="6.475830">
						<ele>1158</ele>
						<time>2025-03-15T17:20:57Z</time>
					</trkpt>
					<trkpt lat="46.237030" lon="6.475790">
						<ele>1158</ele>
						<time>2025-03-15T17:21:08Z</time>
					</trkpt>
					<trkpt lat="46.237100" lon="6.475790">
						<ele>1158</ele>
						<time>2025-03-15T17:21:18Z</time>
					</trkpt>
					<trkpt lat="46.237180" lon="6.475810">
						<ele>1157</ele>
						<time>2025-03-15T17:21:28Z</time>
					</trkpt>
					<trkpt lat="46.237360" lon="6.475910">
						<ele>1156</ele>
						<time>2025-03-15T17:21:54Z</time>
					</trkpt>
					<trkpt lat="46.237390" lon="6.475950">
						<ele>1155</ele>
						<time>2025-03-15T17:22:00Z</time>
					</trkpt>
					<trkpt lat="46.237420" lon="6.476040">
						<ele>1155</ele>
						<time>2025-03-15T17:22:09Z</time>
					</trkpt>
					<trkpt lat="46.237450" lon="6.476190">
						<ele>1154</ele>
						<time>2025-03-15T17:22:23Z</time>
					</trkpt>
					<trkpt lat="46.237440" lon="6.476470">
						<ele>1152</ele>
						<time>2025-03-15T17:22:49Z</time>
					</trkpt>
					<trkpt lat="46.237410" lon="6.476910">
						<ele>1152</ele>
						<time>2025-03-15T17:23:30Z</time>
					</trkpt>
					<trkpt lat="46.237400" lon="6.477080">
						<ele>1152</ele>
						<time>2025-03-15T17:23:46Z</time>
					</trkpt>
					<trkpt lat="46.237420" lon="6.477200">
						<ele>1151</ele>
						<time>2025-03-15T17:23:57Z</time>
					</trkpt>
					<trkpt lat="46.237400" lon="6.477080">
						<ele>1152</ele>
						<time>2025-03-15T17:24:08Z</time>
					</trkpt>
					<trkpt lat="46.237410" lon="6.476910">
						<ele>1152</ele>
						<time>2025-03-15T17:24:24Z</time>
					</trkpt>
					<trkpt lat="46.237410" lon="6.477090">
						<ele>1151</ele>
						<time>2025-03-15T17:24:41Z</time>
					</trkpt>
					<trkpt lat="46.237420" lon="6.477160">
						<ele>1151</ele>
						<time>2025-03-15T17:24:47Z</time>
					</trkpt>
					<trkpt lat="46.237500" lon="6.477250">
						<ele>1148</ele>
						<time>2025-03-15T17:25:01Z</time>
					</trkpt>
					<trkpt lat="46.237540" lon="6.477460">
						<ele>1146</ele>
						<time>2025-03-15T17:25:21Z</time>
					</trkpt>
					<trkpt lat="46.237610" lon="6.477580">
						<ele>1144</ele>
						<time>2025-03-15T17:25:35Z</time>
					</trkpt>
					<trkpt lat="46.237680" lon="6.477760">
						<ele>1141</ele>
						<time>2025-03-15T17:25:55Z</time>
					</trkpt>
					<trkpt lat="46.237730" lon="6.477970">
						<ele>1139</ele>
						<time>2025-03-15T17:26:15Z</time>
					</trkpt>
					<trkpt lat="46.237740" lon="6.478170">
						<ele>1138</ele>
						<time>2025-03-15T17:26:34Z</time>
					</trkpt>
					<trkpt lat="46.237780" lon="6.478350">
						<ele>1136</ele>
						<time>2025-03-15T17:26:51Z</time>
					</trkpt>
					<trkpt lat="46.237820" lon="6.478390">
						<ele>1135</ele>
						<time>2025-03-15T17:26:57Z</time>
					</trkpt>
					<trkpt lat="46.237890" lon="6.478220">
						<ele>1133</ele>
						<time>2025-03-15T17:27:16Z</time>
					</trkpt>
					<trkpt lat="46.237910" lon="6.478030">
						<ele>1133</ele>
						<time>2025-03-15T17:27:33Z</time>
					</trkpt>
					<trkpt lat="46.237980" lon="6.477830">
						<ele>1132</ele>
						<time>2025-03-15T17:27:54Z</time>
					</trkpt>
					<trkpt lat="46.238230" lon="6.477440">
						<ele>1127</ele>
						<time>2025-03-15T17:28:43Z</time>
					</trkpt>
					<trkpt lat="46.238510" lon="6.477340">
						<ele>1121</ele>
						<time>2025-03-15T17:29:22Z</time>
					</trkpt>
					<trkpt lat="46.238620" lon="6.477250">
						<ele>1120</ele>
						<time>2025-03-15T17:29:39Z</time>
					</trkpt>
					<trkpt lat="46.238740" lon="6.477230">
						<ele>1118</ele>
						<time>2025-03-15T17:29:55Z</time>
					</trkpt>
					<trkpt lat="46.238830" lon="6.477290">
						<ele>1115</ele>
						<time>2025-03-15T17:30:08Z</time>
					</trkpt>
					<trkpt lat="46.239010" lon="6.477220">
						<ele>1112</ele>
						<time>2025-03-15T17:30:33Z</time>
					</trkpt>
					<trkpt lat="46.239110" lon="6.477140">
						<ele>1111</ele>
						<time>2025-03-15T17:30:48Z</time>
					</trkpt>
					<trkpt lat="46.239180" lon="6.477110">
						<ele>1110</ele>
						<time>2025-03-15T17:30:58Z</time>
					</trkpt>
					<trkpt lat="46.239260" lon="6.477100">
						<ele>1108</ele>
						<time>2025-03-15T17:31:09Z</time>
					</trkpt>
					<trkpt lat="46.239330" lon="6.477130">
						<ele>1106</ele>
						<time>2025-03-15T17:31:18Z</time>
					</trkpt>
					<trkpt lat="46.239370" lon="6.477220">
						<ele>1102</ele>
						<time>2025-03-15T17:31:28Z</time>
					</trkpt>
					<trkpt lat="46.239420" lon="6.477310">
						<ele>1099</ele>
						<time>2025-03-15T17:31:39Z</time>
					</trkpt>
					<trkpt lat="46.239430" lon="6.477430">
						<ele>1096</ele>
						<time>2025-03-15T17:31:50Z</time>
					</trkpt>
					<trkpt lat="46.239380" lon="6.477590">
						<ele>1095</ele>
						<time>2025-03-15T17:32:06Z</time>
					</trkpt>
					<trkpt lat="46.239370" lon="6.477620">
						<ele>1095</ele>
						<time>2025-03-15T17:32:09Z</time>
					</trkpt>
					<trkpt lat="46.239390" lon="6.477680">
						<ele>1094</ele>
						<time>2025-03-15T17:32:15Z</time>
					</trkpt>
					<trkpt lat="46.239510" lon="6.477590">
						<ele>1091</ele>
						<time>2025-03-15T17:32:33Z</time>
					</trkpt>
					<trkpt lat="46.239570" lon="6.477600">
						<ele>1090</ele>
						<time>2025-03-15T17:32:41Z</time>
					</trkpt>
					<trkpt lat="46.239600" lon="6.477850">
						<ele>1087</ele>
						<time>2025-03-15T17:33:05Z</time>
					</trkpt>
					<trkpt lat="46.239600" lon="6.478010">
						<ele>1086</ele>
						<time>2025-03-15T17:33:20Z</time>
					</trkpt>
					<trkpt lat="46.239580" lon="6.478150">
						<ele>1085</ele>
						<time>2025-03-15T17:33:33Z</time>
					</trkpt>
					<trkpt lat="46.239590" lon="6.478270">
						<ele>1084</ele>
						<time>2025-03-15T17:33:44Z</time>
					</trkpt>
					<trkpt lat="46.239670" lon="6.478440">
						<ele>1082</ele>
						<time>2025-03-15T17:34:03Z</time>
					</trkpt>
					<trkpt lat="46.239770" lon="6.478680">
						<ele>1082</ele>
						<time>2025-03-15T17:34:29Z</time>
					</trkpt>
					<trkpt lat="46.239810" lon="6.478790">
						<ele>1082</ele>
						<time>2025-03-15T17:34:40Z</time>
					</trkpt>
					<trkpt lat="46.240000" lon="6.479120">
						<ele>1081</ele>
						<time>2025-03-15T17:35:20Z</time>
					</trkpt>
					<trkpt lat="46.240100" lon="6.479220">
						<ele>1081</ele>
						<time>2025-03-15T17:35:36Z</time>
					</trkpt>
					<trkpt lat="46.240200" lon="6.479290">
						<ele>1080</ele>
						<time>2025-03-15T17:35:51Z</time>
					</trkpt>
					<trkpt lat="46.240540" lon="6.479470">
						<ele>1076</ele>
						<time>2025-03-15T17:36:39Z</time>
					</trkpt>
					<trkpt lat="46.240560" lon="6.479480">
						<ele>1076</ele>
						<time>2025-03-15T17:36:42Z</time>
					</trkpt>
					<trkpt lat="46.240540" lon="6.479470">
						<ele>1076</ele>
						<time>2025-03-15T17:36:45Z</time>
					</trkpt>
					<trkpt lat="46.240780" lon="6.479190">
						<ele>1071</ele>
						<time>2025-03-15T17:37:26Z</time>
					</trkpt>
					<trkpt lat="46.240920" lon="6.479040">
						<ele>1066</ele>
						<time>2025-03-15T17:37:49Z</time>
					</trkpt>
					<trkpt lat="46.241020" lon="6.478860">
						<ele>1061</ele>
						<time>2025-03-15T17:38:11Z</time>
					</trkpt>
					<trkpt lat="46.241290" lon="6.478480">
						<ele>1053</ele>
						<time>2025-03-15T17:39:01Z</time>
					</trkpt>
					<trkpt lat="46.241390" lon="6.478330">
						<ele>1051</ele>
						<time>2025-03-15T17:39:20Z</time>
					</trkpt>
					<trkpt lat="46.241440" lon="6.478150">
						<ele>1048</ele>
						<time>2025-03-15T17:39:38Z</time>
					</trkpt>
					<trkpt lat="46.241530" lon="6.478070">
						<ele>1045</ele>
						<time>2025-03-15T17:39:52Z</time>
					</trkpt>
					<trkpt lat="46.241700" lon="6.477780">
						<ele>1039</ele>
						<time>2025-03-15T17:40:27Z</time>
					</trkpt>
					<trkpt lat="46.241750" lon="6.477640">
						<ele>1036</ele>
						<time>2025-03-15T17:40:42Z</time>
					</trkpt>
					<trkpt lat="46.241840" lon="6.477450">
						<ele>1032</ele>
						<time>2025-03-15T17:41:03Z</time>
					</trkpt>
					<trkpt lat="46.242170" lon="6.477060">
						<ele>1023</ele>
						<time>2025-03-15T17:42:00Z</time>
					</trkpt>
					<trkpt lat="46.242460" lon="6.476680">
						<ele>1014</ele>
						<time>2025-03-15T17:42:52Z</time>
					</trkpt>
					<trkpt lat="46.242500" lon="6.476590">
						<ele>1013</ele>
						<time>2025-03-15T17:43:02Z</time>
					</trkpt>
					<trkpt lat="46.242650" lon="6.476410">
						<ele>1010</ele>
						<time>2025-03-15T17:43:28Z</time>
					</trkpt>
					<trkpt lat="46.242740" lon="6.476340">
						<ele>1009</ele>
						<time>2025-03-15T17:43:42Z</time>
					</trkpt>
					<trkpt lat="46.242740" lon="6.476050">
						<ele>1009</ele>
						<time>2025-03-15T17:44:08Z</time>
					</trkpt>
					<trkpt lat="46.242830" lon="6.475590">
						<ele>1007</ele>
						<time>2025-03-15T17:44:53Z</time>
					</trkpt>
					<trkpt lat="46.242890" lon="6.475420">
						<ele>1006</ele>
						<time>2025-03-15T17:45:10Z</time>
					</trkpt>
					<trkpt lat="46.242900" lon="6.475390">
						<ele>1006</ele>
						<time>2025-03-15T17:45:13Z</time>
					</trkpt>
					<trkpt lat="46.242970" lon="6.475300">
						<ele>1004</ele>
						<time>2025-03-15T17:45:26Z</time>
					</trkpt>
					<trkpt lat="46.243040" lon="6.475440">
						<ele>1003</ele>
						<time>2025-03-15T17:45:42Z</time>
					</trkpt>
					<trkpt lat="46.243130" lon="6.475570">
						<ele>1002</ele>
						<time>2025-03-15T17:45:59Z</time>
					</trkpt>
					<trkpt lat="46.243270" lon="6.475630">
						<ele>999</ele>
						<time>2025-03-15T17:46:18Z</time>
					</trkpt>
					<trkpt lat="46.243350" lon="6.475600">
						<ele>998</ele>
						<time>2025-03-15T17:46:29Z</time>
					</trkpt>
					<trkpt lat="46.243330" lon="6.475650">
						<ele>998</ele>
						<time>2025-03-15T17:46:35Z</time>
					</trkpt>
					<trkpt lat="46.243350" lon="6.475600">
						<ele>998</ele>
						<time>2025-03-15T17:46:40Z</time>
					</trkpt>
					<trkpt lat="46.243610" lon="6.475270">
						<ele>993</ele>
						<time>2025-03-15T17:47:26Z</time>
					</trkpt>
					<trkpt lat="46.243960" lon="6.474910">
						<ele>985</ele>
						<time>2025-03-15T17:48:23Z</time>
					</trkpt>
					<trkpt lat="46.243990" lon="6.474850">
						<ele>984</ele>
						<time>2025-03-15T17:48:30Z</time>
					</trkpt>
					<trkpt lat="46.244030" lon="6.474720">
						<ele>983</ele>
						<time>2025-03-15T17:48:43Z</time>
					</trkpt>
					<trkpt lat="46.244030" lon="6.474610">
						<ele>983</ele>
						<time>2025-03-15T17:48:54Z</time>
					</trkpt>
					<trkpt lat="46.244090" lon="6.474370">
						<ele>981</ele>
						<time>2025-03-15T17:49:17Z</time>
					</trkpt>
					<trkpt lat="46.244190" lon="6.474240">
						<ele>979</ele>
						<time>2025-03-15T17:49:35Z</time>
					</trkpt>
					<trkpt lat="46.244340" lon="6.474110">
						<ele>976</ele>
						<time>2025-03-15T17:49:58Z</time>
					</trkpt>
					<trkpt lat="46.244490" lon="6.474020">
						<ele>974</ele>
						<time>2025-03-15T17:50:20Z</time>
					</trkpt>
					<trkpt lat="46.244670" lon="6.473940">
						<ele>970</ele>
						<time>2025-03-15T17:50:45Z</time>
					</trkpt>
					<trkpt lat="46.245000" lon="6.473730">
						<ele>962</ele>
						<time>2025-03-15T17:51:33Z</time>
					</trkpt>
					<trkpt lat="46.245170" lon="6.473580">
						<ele>960</ele>
						<time>2025-03-15T17:52:00Z</time>
					</trkpt>
					<trkpt lat="46.245360" lon="6.473260">
						<ele>954</ele>
						<time>2025-03-15T17:52:39Z</time>
					</trkpt>
					<trkpt lat="46.245460" lon="6.472850">
						<ele>949</ele>
						<time>2025-03-15T17:53:19Z</time>
					</trkpt>
					<trkpt lat="46.245420" lon="6.472700">
						<ele>947</ele>
						<time>2025-03-15T17:53:34Z</time>
					</trkpt>
					<trkpt lat="46.245340" lon="6.472570">
						<ele>946</ele>
						<time>2025-03-15T17:53:50Z</time>
					</trkpt>
					<trkpt lat="46.245260" lon="6.472250">
						<ele>944</ele>
						<time>2025-03-15T17:54:21Z</time>
					</trkpt>
					<trkpt lat="46.245240" lon="6.472140">
						<ele>944</ele>
						<time>2025-03-15T17:54:32Z</time>
					</trkpt>
					<trkpt lat="46.245180" lon="6.471880">
						<ele>943</ele>
						<time>2025-03-15T17:54:57Z</time>
					</trkpt>
					</trkseg>
				</trk>
			</gpx>